createdAt,value
2023-04-09T00:00:06.178Z,98748.28
2023-04-09T00:02:40.242Z,98729.78
2023-04-09T00:05:08.551Z,98746.31
2023-04-09T00:07:36.278Z,98748.72
2023-04-09T00:10:04.263Z,98755.41
2023-04-09T00:12:33.351Z,98756.25
2023-04-09T00:15:01.115Z,98760.56
2023-04-09T00:17:28.903Z,98756.78
2023-04-09T00:19:56.793Z,98739.28
2023-04-09T00:22:24.527Z,98734.44
2023-04-09T00:24:52.265Z,98741.13
2023-04-09T00:27:20.013Z,98749.28
2023-04-09T00:29:49.101Z,98743.16
2023-04-09T00:32:17.190Z,98737.06
2023-04-09T00:34:45.092Z,98750.09
2023-04-09T00:37:12.849Z,98741.31
2023-04-09T00:39:40.631Z,98740.94
2023-04-09T00:42:08.391Z,98743.66
2023-04-09T00:44:36.157Z,98743.75
2023-04-09T00:47:05.340Z,98736.13
2023-04-09T00:49:33.077Z,98747.63
2023-04-09T00:52:00.899Z,98744.22
2023-04-09T00:54:28.836Z,98753.41
2023-04-09T00:56:57.118Z,98727.03
2023-04-09T00:59:25.887Z,98726.09
2023-04-09T01:01:54.147Z,98719.25
2023-04-09T01:04:23.331Z,98723.31
2023-04-09T01:06:52.879Z,98720.84
2023-04-09T01:09:23.789Z,98715.19
2023-04-09T01:11:56.651Z,98721.47
2023-04-09T01:14:26.379Z,98718.34
2023-04-09T01:16:58.734Z,98723.69
2023-04-09T01:19:40.634Z,98714.44
2023-04-09T01:22:11.696Z,98714.94
2023-04-09T01:24:46.090Z,98717.44
2023-04-09T01:27:17.616Z,98736.50
2023-04-09T01:29:56.033Z,98736.47
2023-04-09T01:32:24.158Z,98741.13
2023-04-09T01:34:51.921Z,98736.16
2023-04-09T01:37:19.673Z,98724.81
2023-04-09T01:39:47.447Z,98732.47
2023-04-09T01:42:15.215Z,98735.72
2023-04-09T01:44:42.940Z,98744.09
2023-04-09T01:47:12.051Z,98752.03
2023-04-09T01:49:40.602Z,98741.03
2023-04-09T01:52:08.421Z,98756.03
2023-04-09T01:54:36.180Z,98751.03
2023-04-09T01:57:03.972Z,98761.13
2023-04-09T01:59:31.744Z,98755.22
2023-04-09T02:02:01.241Z,98744.38
2023-04-09T02:04:34.013Z,98753.41
2023-04-09T02:07:05.854Z,98747.25
2023-04-09T02:09:33.583Z,98757.31
2023-04-09T02:12:03.589Z,98767.44
2023-04-09T02:14:31.665Z,98764.28
2023-04-09T02:17:00.240Z,98761.28
2023-04-09T02:19:40.749Z,98758.44
2023-04-09T02:22:08.592Z,98767.00
2023-04-09T02:24:36.414Z,98763.69
2023-04-09T02:27:04.371Z,98772.06
2023-04-09T02:29:32.106Z,98766.38
2023-04-09T02:31:59.911Z,98773.91
2023-04-09T02:34:28.528Z,98799.53
2023-04-09T02:36:57.915Z,98797.16
2023-04-09T02:39:25.926Z,98782.75
2023-04-09T02:41:53.890Z,98778.59
2023-04-09T02:44:21.658Z,98776.56
2023-04-09T02:46:49.816Z,98763.13
2023-04-09T02:49:17.583Z,98759.88
2023-04-09T02:51:45.726Z,98762.41
2023-04-09T02:54:14.870Z,98755.34
2023-04-09T02:56:42.643Z,98752.66
2023-04-09T02:59:11.012Z,98748.81
2023-04-09T03:01:38.912Z,98748.56
2023-04-09T03:04:06.806Z,98763.00
2023-04-09T03:06:34.676Z,98762.22
2023-04-09T03:09:02.463Z,98761.19
2023-04-09T03:11:31.587Z,98763.25
2023-04-09T03:13:59.319Z,98772.66
2023-04-09T03:16:27.389Z,98767.06
2023-04-09T03:18:55.144Z,98770.38
2023-04-09T03:21:22.968Z,98773.09
2023-04-09T03:23:52.602Z,98761.16
2023-04-09T03:26:20.570Z,98769.25
2023-04-09T03:28:52.021Z,98778.38
2023-04-09T03:31:20.595Z,98787.00
2023-04-09T03:33:48.211Z,98797.06
2023-04-09T03:36:15.947Z,98808.19
2023-04-09T03:38:57.114Z,98810.22
2023-04-09T03:41:32.446Z,98809.59
2023-04-09T03:44:05.484Z,98815.63
2023-04-09T03:46:42.865Z,98834.94
2023-04-09T03:49:14.684Z,98844.44
2023-04-09T03:51:44.591Z,98842.25
2023-04-09T03:54:12.642Z,98853.34
2023-04-09T03:56:41.389Z,98850.91
2023-04-09T03:59:14.102Z,98853.19
2023-04-09T04:01:45.402Z,98847.31
2023-04-09T04:04:13.584Z,98844.22
2023-04-09T04:06:44.732Z,98854.97
2023-04-09T04:09:34.192Z,98874.34
2023-04-09T04:12:06.653Z,98886.91
2023-04-09T04:15:00.378Z,98885.50
2023-04-09T04:17:42.679Z,98891.94
2023-04-09T04:20:19.560Z,98900.00
2023-04-09T04:23:13.353Z,98903.16
2023-04-09T04:25:49.846Z,98908.66
2023-04-09T04:28:25.093Z,98934.25
2023-04-09T04:30:54.105Z,98944.84
2023-04-09T04:33:21.744Z,98937.94
2023-04-09T04:35:53.136Z,98932.72
2023-04-09T04:38:33.449Z,98941.09
2023-04-09T04:41:04.217Z,98942.38
2023-04-09T04:43:34.053Z,98938.84
2023-04-09T04:46:03.247Z,98960.84
2023-04-09T04:48:32.552Z,98941.44
2023-04-09T04:51:00.405Z,98951.91
2023-04-09T04:53:34.242Z,98944.09
2023-04-09T04:56:13.542Z,98932.63
2023-04-09T04:58:47.323Z,98922.63
2023-04-09T05:01:18.542Z,98935.09
2023-04-09T05:03:46.310Z,98936.44
2023-04-09T05:06:34.204Z,98921.66
2023-04-09T05:09:06.597Z,98934.44
2023-04-09T05:11:49.300Z,98937.81
2023-04-09T05:14:21.513Z,98941.00
2023-04-09T05:16:51.188Z,98941.81
2023-04-09T05:19:22.374Z,98959.09
2023-04-09T05:21:55.787Z,98946.22
2023-04-09T05:24:23.873Z,98937.53
2023-04-09T05:26:51.440Z,98931.25
2023-04-09T05:29:18.963Z,98928.47
2023-04-09T05:31:46.554Z,98922.81
2023-04-09T05:34:33.197Z,98941.59
2023-04-09T05:37:01.103Z,98939.75
2023-04-09T05:39:28.855Z,98940.53
2023-04-09T05:41:58.876Z,98938.19
2023-04-09T05:45:01.802Z,98943.97
2023-04-09T05:47:30.084Z,98951.59
2023-04-09T05:50:19.318Z,98967.03
2023-04-09T05:52:47.214Z,98965.03
2023-04-09T05:55:16.086Z,98968.63
2023-04-09T05:57:53.033Z,98964.63
2023-04-09T06:00:21.758Z,98963.78
2023-04-09T06:02:51.067Z,98964.22
2023-04-09T06:05:20.089Z,98974.97
2023-04-09T06:07:48.815Z,98986.41
2023-04-09T06:10:16.533Z,98988.53
2023-04-09T06:12:44.548Z,98989.94
2023-04-09T06:15:12.572Z,98998.31
2023-04-09T06:17:40.414Z,99001.84
2023-04-09T06:20:08.663Z,99010.19
2023-04-09T06:22:37.620Z,99000.47
2023-04-09T06:25:05.624Z,99004.25
2023-04-09T06:27:33.463Z,99010.59
2023-04-09T06:30:01.094Z,99007.63
2023-04-09T06:32:28.690Z,99021.19
2023-04-09T06:34:56.401Z,99024.13
2023-04-09T06:37:24.170Z,99020.72
2023-04-09T06:40:01.005Z,99041.25
2023-04-09T06:42:29.229Z,99035.09
2023-04-09T06:45:08.482Z,99038.06
2023-04-09T06:47:36.735Z,99029.13
2023-04-09T06:50:04.599Z,99040.31
2023-04-09T06:52:32.192Z,99053.72
2023-04-09T06:55:01.352Z,99067.03
2023-04-09T06:57:28.914Z,99062.88
2023-04-09T06:59:56.564Z,99067.44
2023-04-09T07:02:24.317Z,99068.28
2023-04-09T07:04:52.180Z,99076.34
2023-04-09T07:07:20.997Z,99074.88
2023-04-09T07:09:48.662Z,99090.09
2023-04-09T07:12:19.657Z,99095.03
2023-04-09T07:14:47.308Z,99093.75
2023-04-09T07:17:14.862Z,99111.94
2023-04-09T07:19:42.419Z,99104.47
2023-04-09T07:22:09.959Z,99108.94
2023-04-09T07:24:37.640Z,99121.06
2023-04-09T07:27:05.682Z,99131.28
2023-04-09T07:29:34.871Z,99134.03
2023-04-09T07:32:03.576Z,99137.97
2023-04-09T07:34:31.168Z,99155.78
2023-04-09T07:36:58.736Z,99154.69
2023-04-09T07:39:27.103Z,99160.41
2023-04-09T07:41:54.843Z,99163.94
2023-04-09T07:44:22.376Z,99165.41
2023-04-09T07:46:51.400Z,99171.44
2023-04-09T07:49:18.996Z,99168.91
2023-04-09T07:51:46.542Z,99173.78
2023-04-09T07:54:14.127Z,99163.75
2023-04-09T07:56:41.740Z,99115.63
2023-04-09T07:59:09.452Z,99128.84
2023-04-09T08:01:37.024Z,99138.59
2023-04-09T08:04:06.373Z,99113.22
2023-04-09T08:06:33.991Z,99082.00
2023-04-09T08:09:01.752Z,99074.81
2023-04-09T08:11:29.334Z,99032.44
2023-04-09T08:13:57.191Z,99029.44
2023-04-09T08:16:24.796Z,98979.00
2023-04-09T08:18:52.609Z,98945.41
2023-04-09T08:21:21.779Z,98892.69
2023-04-09T08:23:49.341Z,98870.34
2023-04-09T08:26:16.893Z,98881.16
2023-04-09T08:28:44.501Z,98835.22
2023-04-09T08:31:12.027Z,98814.13
2023-04-09T08:33:39.670Z,98820.78
2023-04-09T08:36:09.146Z,98806.41
2023-04-09T08:38:38.156Z,98795.09
2023-04-09T08:41:06.054Z,98782.91
2023-04-09T08:43:47.280Z,98757.69
2023-04-09T08:46:21.385Z,98730.47
2023-04-09T08:48:49.386Z,98727.06
2023-04-09T08:51:16.915Z,98719.16
2023-04-09T08:53:47.609Z,98703.41
2023-04-09T08:56:15.895Z,98700.66
2023-04-09T08:58:44.493Z,98685.22
2023-04-09T09:01:21.917Z,98674.19
2023-04-09T09:03:57.270Z,98670.88
2023-04-09T09:06:25.156Z,98657.34
2023-04-09T09:09:07.320Z,98626.28
2023-04-09T09:11:35.000Z,98609.69
2023-04-09T09:14:02.916Z,98580.44
2023-04-09T09:16:31.355Z,98571.78
2023-04-09T09:18:59.258Z,98576.09
2023-04-09T09:21:27.363Z,98573.28
2023-04-09T09:23:54.918Z,98571.00
2023-04-09T09:26:24.607Z,98570.31
2023-04-09T09:28:52.570Z,98551.81
2023-04-09T09:31:20.755Z,98545.63
2023-04-09T09:33:48.663Z,98527.19
2023-04-09T09:36:16.434Z,98527.84
2023-04-09T09:38:54.507Z,98546.47
2023-04-09T09:41:23.798Z,98530.69
2023-04-09T09:43:52.327Z,98521.25
2023-04-09T09:46:20.028Z,98525.59
2023-04-09T09:48:49.830Z,98516.13
2023-04-09T09:51:17.540Z,98501.63
2023-04-09T09:53:46.582Z,98494.31
2023-04-09T09:56:15.886Z,98467.31
2023-04-09T09:58:45.804Z,98455.75
2023-04-09T10:01:13.902Z,98436.72
2023-04-09T10:03:42.468Z,98424.34
2023-04-09T10:06:10.009Z,98417.31
2023-04-09T10:08:38.133Z,98406.50
2023-04-09T10:11:06.045Z,98391.28
2023-04-09T10:13:35.359Z,98389.50
2023-04-09T10:16:04.259Z,98386.56
2023-04-09T10:18:33.542Z,98373.63
2023-04-09T10:21:03.250Z,98379.53
2023-04-09T10:23:33.141Z,98375.78
2023-04-09T10:26:00.671Z,98374.81
2023-04-09T10:28:28.150Z,98371.81
2023-04-09T10:30:56.342Z,98359.16
2023-04-09T10:33:26.680Z,98356.25
2023-04-09T10:35:54.396Z,98359.59
2023-04-09T10:38:40.905Z,98348.69
2023-04-09T10:41:13.961Z,98346.56
2023-04-09T10:43:41.484Z,98340.44
2023-04-09T10:46:09.326Z,98339.56
2023-04-09T10:48:38.462Z,98334.50
2023-04-09T10:51:07.388Z,98339.50
2023-04-09T10:53:35.026Z,98338.78
2023-04-09T10:56:04.609Z,98338.16
2023-04-09T10:58:35.145Z,98327.72
2023-04-09T11:01:04.436Z,98331.22
2023-04-09T11:03:32.014Z,98321.91
2023-04-09T11:06:01.453Z,98317.59
2023-04-09T11:08:29.928Z,98311.22
2023-04-09T11:10:58.485Z,98297.47
2023-04-09T11:13:26.145Z,98295.75
2023-04-09T11:15:53.741Z,98304.34
2023-04-09T11:18:21.349Z,98309.78
2023-04-09T11:20:48.927Z,98295.47
2023-04-09T11:23:18.462Z,98298.59
2023-04-09T11:25:49.073Z,98297.56
2023-04-09T11:28:16.601Z,98295.59
2023-04-09T11:30:44.750Z,98292.94
2023-04-09T11:33:12.297Z,98293.44
2023-04-09T11:35:39.953Z,98292.31
2023-04-09T11:38:07.727Z,98288.38
2023-04-09T11:40:36.640Z,98297.94
2023-04-09T11:43:04.201Z,98283.66
2023-04-09T11:45:32.364Z,98281.66
2023-04-09T11:48:00.044Z,98289.44
2023-04-09T11:50:27.604Z,98281.28
2023-04-09T11:52:55.124Z,98280.38
2023-04-09T11:59:17.372Z,98279.84
2023-04-09T12:01:44.864Z,98285.53
2023-04-09T12:04:12.569Z,98279.91
2023-04-09T12:06:41.757Z,98277.13
2023-04-09T12:09:09.445Z,98283.91
2023-04-09T12:11:37.693Z,98288.25
2023-04-09T12:14:05.236Z,98289.06
2023-04-09T12:16:34.771Z,98284.59
2023-04-09T12:19:02.486Z,98290.97
2023-04-09T12:21:45.325Z,98292.84
2023-04-09T12:24:13.038Z,98292.47
2023-04-09T12:26:40.589Z,98291.94
2023-04-09T12:29:08.121Z,98286.66
2023-04-09T12:31:37.167Z,98286.88
2023-04-09T12:34:04.725Z,98283.88
2023-04-09T12:36:32.281Z,98278.81
2023-04-09T12:38:59.830Z,98282.41
2023-04-09T12:41:27.416Z,98275.09
2023-04-09T12:43:54.951Z,98276.00
2023-04-09T12:46:22.476Z,98275.28
2023-04-09T12:48:51.534Z,98285.53
2023-04-09T12:51:19.044Z,98270.25
2023-04-09T12:53:46.625Z,98268.25
2023-04-09T12:56:14.121Z,98271.19
2023-04-09T12:58:41.659Z,98255.81
2023-04-09T13:01:09.217Z,98254.03
2023-04-09T13:03:36.998Z,98262.41
2023-04-09T13:06:06.859Z,98272.13
2023-04-09T13:08:34.519Z,98266.91
2023-04-09T13:11:02.113Z,98255.66
2023-04-09T13:13:29.807Z,98265.25
2023-04-09T13:15:57.392Z,98263.28
2023-04-09T13:18:25.005Z,98251.38
2023-04-09T13:20:52.543Z,98250.88
2023-04-09T13:23:21.454Z,98249.84
2023-04-09T13:25:48.966Z,98252.03
2023-04-09T13:28:17.007Z,98248.06
2023-04-09T13:30:44.588Z,98244.22
2023-04-09T13:33:12.208Z,98250.84
2023-04-09T13:35:39.757Z,98247.25
2023-04-09T13:38:07.409Z,98249.13
2023-04-09T13:40:36.314Z,98243.84
2023-04-09T13:43:03.888Z,98255.28
2023-04-09T13:45:31.421Z,98244.19
2023-04-09T13:48:00.335Z,98232.91
2023-04-09T13:50:27.862Z,98234.09
2023-04-09T13:52:55.658Z,98223.31
2023-04-09T13:55:23.170Z,98231.31
2023-04-09T13:57:52.091Z,98234.44
2023-04-09T14:00:20.786Z,98229.03
2023-04-09T14:02:48.469Z,98231.00
2023-04-09T14:05:16.536Z,98226.59
2023-04-09T14:07:44.161Z,98225.59
2023-04-09T14:10:12.151Z,98218.88
2023-04-09T14:12:39.688Z,98231.47
2023-04-09T14:15:10.210Z,98219.44
2023-04-09T14:17:37.944Z,98216.50
2023-04-09T14:20:05.910Z,98220.00
2023-04-09T14:22:33.471Z,98213.66
2023-04-09T14:25:01.261Z,98211.97
2023-04-09T14:27:28.880Z,98209.34
2023-04-09T14:29:56.380Z,98208.16
2023-04-09T14:32:25.441Z,98214.66
2023-04-09T14:34:52.964Z,98205.28
2023-04-09T14:37:20.548Z,98204.59
2023-04-09T14:39:48.063Z,98201.63
2023-04-09T14:42:15.655Z,98207.22
2023-04-09T14:44:43.167Z,98208.22
2023-04-09T14:47:10.781Z,98209.06
2023-04-09T14:49:39.662Z,98207.25
2023-04-09T14:52:07.182Z,98209.53
2023-04-09T14:54:34.847Z,98210.22
2023-04-09T14:57:03.811Z,98197.13
2023-04-09T14:59:31.344Z,98205.09
2023-04-09T15:01:58.949Z,98205.19
2023-04-09T15:04:26.870Z,98195.91
2023-04-09T15:06:55.801Z,98199.63
2023-04-09T15:09:23.369Z,98195.13
2023-04-09T15:15:18.766Z,98195.47
2023-04-09T15:17:46.232Z,98186.75
2023-04-09T15:20:14.146Z,98190.63
2023-04-09T15:22:42.910Z,98189.19
2023-04-09T15:25:11.482Z,98190.19
2023-04-09T15:27:39.960Z,98190.47
2023-04-09T15:30:08.471Z,98184.31
2023-04-09T15:32:36.453Z,98192.16
2023-04-09T15:35:04.042Z,98178.78
2023-04-09T15:37:31.961Z,98186.56
2023-04-09T15:40:00.882Z,98179.16
2023-04-09T15:42:28.409Z,98183.53
2023-04-09T15:44:55.951Z,98184.53
2023-04-09T15:47:23.536Z,98183.31
2023-04-09T15:49:51.059Z,98183.13
2023-04-09T15:52:18.519Z,98184.31
2023-04-09T15:54:45.978Z,98189.31
2023-04-09T15:57:15.296Z,98185.09
2023-04-09T15:59:42.753Z,98184.13
2023-04-09T16:02:10.303Z,98189.59
2023-04-09T16:04:37.903Z,98194.84
2023-04-09T16:07:05.554Z,98193.06
2023-04-09T16:09:33.087Z,98186.47
2023-04-09T16:12:01.504Z,98183.66
2023-04-09T16:14:31.010Z,98189.75
2023-04-09T16:16:58.636Z,98187.09
2023-04-09T16:19:26.134Z,98186.75
2023-04-09T16:21:53.751Z,98185.81
2023-04-09T16:24:21.230Z,98195.19
2023-04-09T16:26:48.733Z,98195.84
2023-04-09T16:29:17.768Z,98194.53
2023-04-09T16:31:46.825Z,98203.59
2023-04-09T16:34:14.399Z,98200.66
2023-04-09T16:36:41.881Z,98203.94
2023-04-09T16:39:09.458Z,98204.44
2023-04-09T16:41:37.131Z,98210.22
2023-04-09T16:44:04.751Z,98208.22
2023-04-09T16:46:32.420Z,98214.13
2023-04-09T16:49:01.383Z,98209.16
2023-04-09T16:51:28.891Z,98206.84
2023-04-09T16:53:56.455Z,98209.94
2023-04-09T16:56:23.964Z,98214.63
2023-04-09T16:58:51.823Z,98208.38
2023-04-09T17:01:19.499Z,98211.50
2023-04-09T17:03:48.731Z,98211.31
2023-04-09T17:06:18.071Z,98210.88
2023-04-09T17:08:45.798Z,98211.66
2023-04-09T17:11:15.507Z,98217.03
2023-04-09T17:13:43.243Z,98217.47
2023-04-09T17:16:11.433Z,98221.16
2023-04-09T17:18:39.128Z,98225.03
2023-04-09T17:21:06.967Z,98229.97
2023-04-09T17:23:36.081Z,98224.97
2023-04-09T17:26:03.599Z,98226.50
2023-04-09T17:28:31.129Z,98233.13
2023-04-09T17:30:58.840Z,98242.22
2023-04-09T17:33:26.468Z,98241.59
2023-04-09T17:35:54.236Z,98237.19
2023-04-09T17:38:24.784Z,98233.09
2023-04-09T17:40:53.694Z,98246.22
2023-04-09T17:43:21.271Z,98251.34
2023-04-09T17:45:49.268Z,98251.59
2023-04-09T17:48:17.186Z,98254.50
2023-04-09T17:50:45.048Z,98260.41
2023-04-09T17:53:12.761Z,98261.75
2023-04-09T17:55:40.270Z,98260.66
2023-04-09T17:58:09.269Z,98263.22
2023-04-09T18:00:36.847Z,98260.47
2023-04-09T18:03:04.734Z,98260.78
2023-04-09T18:05:32.586Z,98265.78
2023-04-09T18:08:02.306Z,98283.91
2023-04-09T18:10:29.893Z,98275.91
2023-04-09T18:13:00.340Z,98273.59
2023-04-09T18:15:29.227Z,98281.19
2023-04-09T18:17:59.101Z,98279.25
2023-04-09T18:20:26.639Z,98278.19
2023-04-09T18:22:55.516Z,98284.53
2023-04-09T18:25:23.409Z,98285.09
2023-04-09T18:27:51.278Z,98289.25
2023-04-09T18:30:18.927Z,98296.56
2023-04-09T18:32:48.802Z,98298.50
2023-04-09T18:35:17.409Z,98298.78
2023-04-09T18:37:44.945Z,98292.56
2023-04-09T18:40:15.378Z,98301.44
2023-04-09T18:42:43.041Z,98301.94
2023-04-09T18:45:11.497Z,98314.38
2023-04-09T18:47:39.504Z,98316.59
2023-04-09T18:50:10.098Z,98320.47
2023-04-09T18:52:38.936Z,98321.13
2023-04-09T18:55:06.901Z,98326.25
2023-04-09T18:57:34.471Z,98331.06
2023-04-09T19:00:05.799Z,98330.28
2023-04-09T19:02:33.597Z,98343.91
2023-04-09T19:05:01.940Z,98344.44
2023-04-09T19:07:31.545Z,98352.34
2023-04-09T19:09:59.080Z,98358.66
2023-04-09T19:12:27.476Z,98369.28
2023-04-09T19:14:55.009Z,98364.91
2023-04-09T19:17:22.779Z,98378.53
2023-04-09T19:19:50.392Z,98385.41
2023-04-09T19:22:17.927Z,98387.09
2023-04-09T19:24:46.807Z,98379.50
2023-04-09T19:27:14.520Z,98375.91
2023-04-09T19:29:42.087Z,98390.88
2023-04-09T19:32:12.788Z,98388.16
2023-04-09T19:34:40.380Z,98396.97
2023-04-09T19:37:07.923Z,98399.41
2023-04-09T19:39:35.739Z,98403.03
2023-04-09T19:42:04.674Z,98411.50
2023-04-09T19:44:32.251Z,98410.94
2023-04-09T19:46:59.872Z,98405.16
2023-04-09T19:49:27.416Z,98407.88
2023-04-09T19:51:54.954Z,98416.97
2023-04-09T19:54:22.783Z,98416.13
2023-04-09T19:56:50.337Z,98416.69
2023-04-09T19:59:19.339Z,98420.22
2023-04-09T20:01:48.049Z,98424.63
2023-04-09T20:04:15.692Z,98418.13
2023-04-09T20:06:43.682Z,98423.06
2023-04-09T20:09:12.409Z,98425.66
2023-04-09T20:11:39.960Z,98431.59
2023-04-09T20:14:07.760Z,98433.22
2023-04-09T20:16:36.737Z,98439.75
2023-04-09T20:19:04.321Z,98445.56
2023-04-09T20:21:31.869Z,98451.03
2023-04-09T20:23:59.481Z,98444.00
2023-04-09T20:26:27.012Z,98459.97
2023-04-09T20:28:54.712Z,98461.50
2023-04-09T20:31:22.957Z,98461.81
2023-04-09T20:33:51.892Z,98481.38
2023-04-09T20:36:19.821Z,98484.81
2023-04-09T20:38:47.361Z,98478.31
2023-04-09T20:41:14.896Z,98473.91
2023-04-09T20:43:42.516Z,98461.22
2023-04-09T20:46:10.729Z,98461.59
2023-04-09T20:48:38.271Z,98456.28
2023-04-09T20:51:10.701Z,98447.88
2023-04-09T20:53:38.286Z,98454.47
2023-04-09T20:56:06.156Z,98464.09
2023-04-09T20:58:33.674Z,98463.81
2023-04-09T21:01:06.603Z,98465.81
2023-04-09T21:03:34.568Z,98467.66
2023-04-09T21:06:02.499Z,98478.03
2023-04-09T21:08:31.454Z,98491.97
2023-04-09T21:10:59.051Z,98495.34
2023-04-09T21:13:27.413Z,98514.47
2023-04-09T21:15:55.903Z,98514.91
2023-04-09T21:18:23.979Z,98516.09
2023-04-09T21:20:51.708Z,98526.50
2023-04-09T21:23:19.348Z,98536.00
2023-04-09T21:25:48.222Z,98538.63
2023-04-09T21:28:15.777Z,98528.31
2023-04-09T21:30:43.358Z,98534.28
2023-04-09T21:33:10.919Z,98529.09
2023-04-09T21:35:38.567Z,98533.34
2023-04-09T21:38:06.242Z,98541.00
2023-04-09T21:40:33.769Z,98553.22
2023-04-09T21:43:02.654Z,98558.47
2023-04-09T21:45:30.210Z,98563.94
2023-04-09T21:47:57.731Z,98566.63
2023-04-09T21:50:25.272Z,98559.56
2023-04-09T21:52:53.096Z,98567.06
2023-04-09T21:55:20.662Z,98575.56
2023-04-09T21:57:48.224Z,98568.41
2023-04-09T22:00:17.666Z,98566.13
2023-04-09T22:02:45.342Z,98577.88
2023-04-09T22:05:13.083Z,98593.03
2023-04-09T22:07:40.938Z,98608.53
2023-04-09T22:10:09.450Z,98619.97
2023-04-09T22:12:37.239Z,98630.00
2023-04-09T22:15:05.791Z,98637.91
2023-04-09T22:17:34.682Z,98642.09
2023-04-09T22:20:02.704Z,98640.81
2023-04-09T22:22:30.225Z,98646.66
2023-04-09T22:24:57.764Z,98651.16
2023-04-09T22:27:25.291Z,98649.41
2023-04-09T22:29:52.817Z,98643.59
2023-04-09T22:32:20.431Z,98659.28
2023-04-09T22:34:49.308Z,98654.38
2023-04-09T22:37:17.400Z,98659.44
2023-04-09T22:39:44.910Z,98643.88
2023-04-09T22:42:12.683Z,98629.50
2023-04-09T22:44:40.485Z,98632.34
2023-04-09T22:47:08.012Z,98636.78
2023-04-09T22:49:35.559Z,98645.09
2023-04-09T22:52:04.453Z,98656.44
2023-04-09T22:54:31.984Z,98648.47
2023-04-09T22:56:59.501Z,98661.25
2023-04-09T22:59:38.973Z,98675.13
2023-04-09T23:02:07.574Z,98680.19
2023-04-09T23:04:35.792Z,98683.31
2023-04-09T23:07:04.761Z,98681.53
2023-04-09T23:09:32.278Z,98693.63
2023-04-09T23:11:59.845Z,98698.09
2023-04-09T23:14:27.361Z,98702.06
2023-04-09T23:16:54.898Z,98703.69
2023-04-09T23:19:22.449Z,98701.50
2023-04-09T23:21:49.961Z,98689.44
2023-04-09T23:24:19.309Z,98697.34
2023-04-09T23:26:46.803Z,98696.94
2023-04-09T23:29:14.370Z,98688.41
2023-04-09T23:31:41.905Z,98686.47
2023-04-09T23:34:09.462Z,98668.94
2023-04-09T23:36:36.981Z,98673.63
2023-04-09T23:39:04.685Z,98673.22
2023-04-09T23:41:33.553Z,98674.78
2023-04-09T23:44:01.110Z,98664.47
2023-04-09T23:46:28.600Z,98670.53
2023-04-09T23:48:56.146Z,98662.19
2023-04-09T23:51:24.319Z,98664.91
2023-04-09T23:53:52.085Z,98673.22
2023-04-09T23:56:19.801Z,98680.50
2023-04-09T23:58:48.679Z,98675.50
